Time;durP1;ratioP1;P1;durP2;ratioP2;P2;SDS_P1;SDS_P2;PMS_P1;PMS_P2;Temp;Humidity;BMP_temperature;BMP_pressure;BME280_temperature;BME280_humidity;BME280_pressure;Samples;Min_cycle;Max_cycle;Signal;HPM_P1;HPM_P2
2021/01/11 00:00:15;;;;;;;2.50;2.30;;;17.80;24.10;;;;;;5073213;28;20408;-59
2021/01/11 00:02:40;;;;;;;2.90;2.55;;;17.80;24.10;;;;;;5072996;28;20653;-59
2021/01/11 00:05:07;;;;;;;2.13;1.87;;;17.80;24.10;;;;;;5074178;28;20174;-58
2021/01/11 00:07:33;;;;;;;2.53;2.33;;;17.80;24.20;;;;;;5075354;28;20216;-59
2021/01/11 00:09:59;;;;;;;2.40;2.20;;;17.80;24.20;;;;;;5077094;28;20606;-59
2021/01/11 00:12:24;;;;;;;2.20;2.00;;;17.80;24.20;;;;;;5076918;28;20201;-59
2021/01/11 00:14:50;;;;;;;3.20;2.40;;;17.80;24.10;;;;;;5077264;28;20785;-58
2021/01/11 00:17:16;;;;;;;2.80;2.60;;;17.80;24.10;;;;;;5075660;28;20166;-58
2021/01/11 00:19:41;;;;;;;2.70;2.23;;;17.90;24.20;;;;;;5075769;28;20640;-59
2021/01/11 00:22:07;;;;;;;2.60;2.40;;;17.80;24.10;;;;;;5075097;28;20630;-59
2021/01/11 00:24:33;;;;;;;2.20;2.10;;;17.80;24.20;;;;;;5076866;28;20168;-59
2021/01/11 00:26:59;;;;;;;2.80;2.60;;;17.80;24.10;;;;;;5076425;28;20158;-60
2021/01/11 00:29:25;;;;;;;3.93;2.30;;;17.80;24.10;;;;;;5076787;28;20170;-60
2021/01/11 00:31:51;;;;;;;2.03;1.93;;;17.80;24.20;;;;;;5076567;28;20178;-59
2021/01/11 00:34:17;;;;;;;2.33;2.13;;;17.80;24.10;;;;;;5075252;28;20412;-59
2021/01/11 00:36:47;;;;;;;2.72;2.53;;;17.80;24.10;;;;;;5076556;28;20162;-60
2021/01/11 00:39:16;;;;;;;2.60;2.40;;;17.80;24.20;;;;;;5076111;28;20548;-59
2021/01/11 00:41:42;;;;;;;2.30;2.20;;;17.80;24.20;;;;;;5076481;28;20167;-59
2021/01/11 00:44:07;;;;;;;2.30;1.97;;;17.80;24.20;;;;;;5076262;28;20249;-59
2021/01/11 00:46:33;;;;;;;3.03;2.37;;;17.80;24.70;;;;;;5075363;28;20454;-59
2021/01/11 00:48:59;;;;;;;1.83;1.73;;;17.80;24.20;;;;;;5076210;28;20559;-58
2021/01/11 00:51:25;;;;;;;2.60;2.40;;;17.80;24.20;;;;;;5076240;28;20456;-59
2021/01/11 00:53:51;;;;;;;2.65;2.30;;;17.80;24.20;;;;;;5075797;28;20166;-59
2021/01/11 00:56:18;;;;;;;2.87;2.10;;;17.80;24.20;;;;;;5073639;28;20187;-59
2021/01/11 00:58:45;;;;;;;3.28;2.75;;;17.80;24.20;;;;;;5074951;28;20416;-59
2021/01/11 01:01:12;;;;;;;2.15;1.95;;;17.80;24.20;;;;;;5076205;28;20159;-59
2021/01/11 01:03:39;;;;;;;3.05;2.65;;;17.80;24.20;;;;;;5076089;28;20155;-59
2021/01/11 01:06:08;;;;;;;2.70;2.50;;;17.80;24.20;;;;;;5076046;28;20163;-59
2021/01/11 01:08:34;;;;;;;2.50;2.30;;;17.80;24.20;;;;;;5075370;28;20173;-59
2021/01/11 01:10:59;;;;;;;2.40;2.20;;;17.80;24.20;;;;;;5075854;28;20277;-59
2021/01/11 01:13:25;;;;;;;3.07;2.53;;;17.70;24.20;;;;;;5075740;28;20221;-59
2021/01/11 01:15:51;;;;;;;2.37;2.20;;;17.70;24.10;;;;;;5075167;28;20154;-58
2021/01/11 01:18:16;;;;;;;2.07;1.97;;;17.70;24.20;;;;;;5057716;28;20175;-59
2021/01/11 01:20:42;;;;;;;2.57;2.37;;;17.70;24.20;;;;;;5074472;28;20175;-59
2021/01/11 01:23:08;;;;;;;2.07;1.97;;;17.70;24.20;;;;;;5075288;28;20483;-59
2021/01/11 01:25:33;;;;;;;2.40;1.80;;;17.70;24.20;;;;;;5075661;28;20566;-60
2021/01/11 01:27:59;;;;;;;2.30;2.10;;;17.70;24.10;;;;;;5075680;28;20241;-60
2021/01/11 01:30:25;;;;;;;2.90;2.60;;;17.70;24.20;;;;;;5075726;28;20155;-59
2021/01/11 01:32:50;;;;;;;2.10;2.00;;;17.70;24.20;;;;;;5074144;28;20558;-60
2021/01/11 01:35:16;;;;;;;2.20;2.00;;;17.70;24.20;;;;;;5074105;28;20692;-58
2021/01/11 01:37:41;;;;;;;2.50;2.40;;;17.70;24.20;;;;;;5073701;28;20625;-60
2021/01/11 01:40:08;;;;;;;2.50;2.30;;;17.70;24.20;;;;;;5075393;28;20224;-59
2021/01/11 01:42:34;;;;;;;2.90;2.70;;;17.70;24.20;;;;;;5075359;28;20246;-59
2021/01/11 01:45:00;;;;;;;2.60;2.40;;;17.70;24.20;;;;;;5075409;28;20190;-59
2021/01/11 01:47:26;;;;;;;2.27;2.13;;;17.70;24.20;;;;;;5075135;28;20173;-59
2021/01/11 01:49:52;;;;;;;2.22;2.03;;;17.70;24.20;;;;;;5074032;28;20425;-59
2021/01/11 01:52:19;;;;;;;2.47;2.27;;;17.70;24.20;;;;;;5074667;28;20657;-59
2021/01/11 01:54:49;;;;;;;2.53;2.33;;;17.70;24.20;;;;;;5074942;28;20172;-59
2021/01/11 01:57:15;;;;;;;2.65;2.45;;;17.70;24.20;;;;;;5073765;28;20154;-59
2021/01/11 01:59:42;;;;;;;1.90;1.80;;;17.70;24.20;;;;;;5075028;28;20154;-59
2021/01/11 02:02:14;;;;;;;2.53;2.33;;;17.70;24.20;;;;;;5074922;28;20158;-59
2021/01/11 02:04:40;;;;;;;2.58;2.38;;;17.70;24.20;;;;;;5074876;28;20171;-59
2021/01/11 02:07:31;;;;;;;2.22;2.03;;;17.70;24.40;;;;;;5074207;28;20158;-59
2021/01/11 02:10:31;;;;;;;2.22;2.03;;;17.70;24.20;;;;;;5074478;28;20232;-58
2021/01/11 02:13:14;;;;;;;2.85;2.65;;;17.70;24.20;;;;;;5074210;28;20264;-59
2021/01/11 02:15:46;;;;;;;2.60;2.40;;;17.70;24.20;;;;;;5073455;28;20169;-59
2021/01/11 02:18:19;;;;;;;2.50;2.30;;;17.70;24.20;;;;;;5074631;28;20147;-58
2021/01/11 02:21:12;;;;;;;2.80;2.60;;;17.60;24.20;;;;;;5074563;28;20151;-59
2021/01/11 02:24:08;;;;;;;3.50;3.08;;;17.70;24.30;;;;;;5073915;28;20229;-59
2021/01/11 02:26:56;;;;;;;2.30;2.10;;;17.60;24.20;;;;;;5074655;28;20150;-60
2021/01/11 02:29:55;;;;;;;2.70;2.50;;;17.60;24.20;;;;;;5073889;28;20242;-60
2021/01/11 02:32:23;;;;;;;2.20;2.00;;;17.60;24.20;;;;;;5073130;28;20267;-59
2021/01/11 02:34:52;;;;;;;2.58;2.38;;;17.60;24.20;;;;;;5074468;28;20170;-59
2021/01/11 02:37:18;;;;;;;2.83;2.63;;;17.70;24.30;;;;;;5073605;28;20161;-59
2021/01/11 02:39:44;;;;;;;2.47;2.27;;;17.60;24.20;;;;;;5073205;28;20237;-59
2021/01/11 02:42:10;;;;;;;2.53;2.42;;;17.60;24.20;;;;;;5074150;28;20163;-59
2021/01/11 02:44:35;;;;;;;1.80;1.70;;;17.60;24.20;;;;;;5074310;28;20188;-59
2021/01/11 02:47:01;;;;;;;2.70;2.13;;;17.60;24.20;;;;;;5074000;28;20163;-59
2021/01/11 02:49:36;;;;;;;2.23;2.13;;;17.60;24.20;;;;;;5074453;28;20248;-59
2021/01/11 02:52:05;;;;;;;2.63;2.42;;;17.60;24.20;;;;;;5073339;28;20930;-60
2021/01/11 02:54:39;;;;;;;2.92;2.63;;;17.60;24.20;;;;;;5074039;28;20154;-58
2021/01/11 02:57:23;;;;;;;2.55;2.33;;;17.60;24.20;;;;;;5072387;28;20174;-59
2021/01/11 02:59:57;;;;;;;2.30;2.10;;;17.70;24.30;;;;;;5073999;28;20151;-59
2021/01/11 03:02:25;;;;;;;2.15;1.95;;;17.60;24.20;;;;;;5073856;28;20154;-59
2021/01/11 03:04:52;;;;;;;3.58;2.83;;;17.60;24.20;;;;;;5073798;28;20174;-59
2021/01/11 03:07:18;;;;;;;2.28;2.10;;;17.60;24.20;;;;;;5073161;28;20166;-59
2021/01/11 03:09:45;;;;;;;2.10;2.00;;;17.60;24.20;;;;;;5074161;28;20170;-59
2021/01/11 03:12:11;;;;;;;2.20;1.92;;;17.60;24.20;;;;;;5073783;28;20198;-59
2021/01/11 03:14:38;;;;;;;2.70;2.27;;;17.60;24.20;;;;;;5073744;28;20220;-59
2021/01/11 03:17:03;;;;;;;2.60;2.40;;;17.60;24.20;;;;;;5073659;28;20405;-60
2021/01/11 03:19:29;;;;;;;2.47;2.17;;;17.60;24.20;;;;;;5073737;28;20484;-59
2021/01/11 03:21:55;;;;;;;2.67;2.47;;;17.60;24.20;;;;;;5060614;28;20424;-59
2021/01/11 03:24:21;;;;;;;2.00;1.80;;;17.60;24.20;;;;;;5053843;28;20174;-59
2021/01/11 03:26:48;;;;;;;2.90;2.70;;;17.60;24.20;;;;;;5052490;28;20611;-58
2021/01/11 03:29:18;;;;;;;2.60;2.40;;;17.60;24.20;;;;;;5053485;28;20205;-59
2021/01/11 03:31:45;;;;;;;2.28;2.13;;;17.60;24.20;;;;;;5053493;28;20183;-59
2021/01/11 03:34:11;;;;;;;2.65;2.45;;;17.60;24.30;;;;;;5053718;28;20266;-59
2021/01/11 03:36:39;;;;;;;2.47;2.28;;;17.60;24.30;;;;;;5052422;28;20462;-59
2021/01/11 03:39:06;;;;;;;2.40;2.20;;;17.60;24.30;;;;;;5054000;28;20669;-59
2021/01/11 03:41:37;;;;;;;2.25;2.05;;;17.60;24.30;;;;;;5056516;28;20171;-59
2021/01/11 03:44:03;;;;;;;1.92;1.83;;;17.60;24.30;;;;;;5057520;28;20183;-59
2021/01/11 03:46:30;;;;;;;1.88;1.77;;;17.60;24.30;;;;;;5057620;28;20630;-59
2021/01/11 03:48:56;;;;;;;2.10;1.90;;;17.60;24.30;;;;;;5057527;28;20155;-59
2021/01/11 03:51:22;;;;;;;2.55;2.35;;;17.60;24.30;;;;;;5057227;28;20188;-59
2021/01/11 03:53:48;;;;;;;2.10;1.90;;;17.60;24.30;;;;;;5056987;28;20159;-59
2021/01/11 03:56:14;;;;;;;2.33;2.13;;;17.60;24.30;;;;;;5069905;28;21014;-58
2021/01/11 03:58:39;;;;;;;2.10;2.00;;;17.60;24.30;;;;;;5077290;28;20404;-59
2021/01/11 04:01:05;;;;;;;2.37;2.17;;;17.60;24.30;;;;;;5075937;28;20908;-59
2021/01/11 04:03:31;;;;;;;2.30;2.10;;;17.60;24.30;;;;;;5077079;28;20513;-59
2021/01/11 04:05:57;;;;;;;2.70;2.50;;;17.60;24.30;;;;;;5077125;28;20632;-59
2021/01/11 04:08:24;;;;;;;2.50;2.10;;;17.60;24.30;;;;;;5076808;28;20220;-59
2021/01/11 04:10:50;;;;;;;1.90;1.80;;;17.60;24.30;;;;;;5077025;28;20272;-58
2021/01/11 04:13:19;;;;;;;2.30;2.10;;;17.60;24.30;;;;;;5076948;28;20221;-58
2021/01/11 04:15:45;;;;;;;2.45;2.25;;;17.60;24.30;;;;;;5059155;28;20379;-58
2021/01/11 04:18:11;;;;;;;2.53;2.33;;;17.60;24.30;;;;;;5075632;28;20208;-58
2021/01/11 04:20:37;;;;;;;2.70;2.50;;;17.60;24.30;;;;;;5077137;28;20404;-59
2021/01/11 04:23:03;;;;;;;2.40;2.20;;;17.60;24.30;;;;;;5076367;28;20265;-58
2021/01/11 04:25:29;;;;;;;2.20;2.00;;;17.60;24.30;;;;;;5076683;28;20186;-58
2021/01/11 04:27:59;;;;;;;2.30;2.10;;;17.60;24.30;;;;;;5076694;28;20209;-58
2021/01/11 04:30:26;;;;;;;2.20;2.00;;;17.60;24.30;;;;;;5076728;28;20405;-58
2021/01/11 04:32:52;;;;;;;2.15;2.00;;;17.60;24.30;;;;;;5076792;28;20277;-58
2021/01/11 04:35:20;;;;;;;1.60;1.50;;;17.60;24.30;;;;;;5076701;28;20151;-58
2021/01/11 04:37:46;;;;;;;2.70;2.30;;;17.60;24.30;;;;;;5076089;28;20151;-59
2021/01/11 04:40:13;;;;;;;2.30;2.10;;;17.60;24.30;;;;;;5076889;28;20178;-58
2021/01/11 04:42:58;;;;;;;2.00;1.90;;;17.60;24.30;;;;;;5075084;28;20169;-59
2021/01/11 04:45:24;;;;;;;2.10;2.00;;;17.60;24.30;;;;;;5075069;28;20204;-59
2021/01/11 04:47:55;;;;;;;3.10;2.38;;;17.60;24.20;;;;;;5076017;28;20203;-59
2021/01/11 04:50:22;;;;;;;1.92;1.83;;;17.60;24.20;;;;;;5075501;28;20246;-59
2021/01/11 04:52:49;;;;;;;2.30;2.10;;;17.60;24.20;;;;;;5075461;28;20179;-58
2021/01/11 04:55:15;;;;;;;2.55;2.35;;;17.60;24.20;;;;;;5076038;28;20171;-58
2021/01/11 04:57:53;;;;;;;2.27;2.07;;;17.60;24.30;;;;;;5058199;28;20239;-59
2021/01/11 05:00:22;;;;;;;2.28;2.10;;;17.70;24.30;;;;;;5076011;28;20376;-59
2021/01/11 05:03:01;;;;;;;2.47;2.28;;;17.70;24.30;;;;;;5075747;28;20158;-59
2021/01/11 05:05:30;;;;;;;2.28;2.08;;;17.60;24.20;;;;;;5076080;28;20162;-58
2021/01/11 05:07:57;;;;;;;2.75;2.55;;;17.60;24.80;;;;;;5075555;28;20163;-58
2021/01/11 05:10:26;;;;;;;2.20;2.08;;;17.70;24.40;;;;;;5075898;28;20162;-59
2021/01/11 05:12:59;;;;;;;2.28;2.13;;;17.70;24.30;;;;;;5075448;28;20743;-59
2021/01/11 05:15:26;;;;;;;2.03;1.92;;;17.70;24.30;;;;;;5074591;28;20173;-59
2021/01/11 05:17:52;;;;;;;1.88;1.75;;;17.70;24.30;;;;;;5075655;28;20170;-58
2021/01/11 05:20:24;;;;;;;1.80;1.70;;;17.70;24.30;;;;;;5076315;28;20173;-59
2021/01/11 05:22:51;;;;;;;2.20;2.10;;;17.70;24.30;;;;;;5075158;28;20167;-58
2021/01/11 05:25:22;;;;;;;3.47;2.28;;;17.70;24.30;;;;;;5076137;28;20167;-59
2021/01/11 05:28:06;;;;;;;2.20;2.00;;;17.70;24.30;;;;;;5075720;28;20163;-59
2021/01/11 05:30:35;;;;;;;1.80;1.70;;;17.70;24.30;;;;;;5074745;28;20170;-59
2021/01/11 05:33:01;;;;;;;2.00;1.90;;;17.70;24.30;;;;;;5075356;28;20190;-59
2021/01/11 05:35:27;;;;;;;2.50;2.30;;;17.70;24.30;;;;;;5075649;28;20151;-58
2021/01/11 05:37:59;;;;;;;1.80;1.70;;;17.70;24.30;;;;;;5075005;28;20151;-59
2021/01/11 05:40:27;;;;;;;2.88;2.67;;;17.70;24.30;;;;;;5075715;28;20162;-59
2021/01/11 05:42:58;;;;;;;1.80;1.70;;;17.70;24.20;;;;;;5075159;28;20279;-59
2021/01/11 05:45:25;;;;;;;2.60;2.35;;;17.70;24.20;;;;;;5075214;28;20159;-59
2021/01/11 05:47:57;;;;;;;2.40;2.30;;;17.70;24.30;;;;;;5075173;28;20155;-59
2021/01/11 05:50:26;;;;;;;2.17;2.08;;;17.70;24.20;;;;;;5073833;28;20166;-59
2021/01/11 05:52:51;;;;;;;3.15;2.92;;;17.70;24.20;;;;;;5074641;28;20186;-59
2021/01/11 05:55:28;;;;;;;1.97;1.83;;;17.70;24.20;;;;;;5074867;28;20503;-58
2021/01/11 05:58:02;;;;;;;2.10;1.90;;;17.70;24.20;;;;;;5075007;28;20241;-59
2021/01/11 06:00:36;;;;;;;2.22;2.03;;;17.70;24.20;;;;;;5074988;28;20161;-58
2021/01/11 06:03:05;;;;;;;2.17;1.98;;;17.70;24.20;;;;;;5074543;28;20208;-59
2021/01/11 06:05:31;;;;;;;2.45;2.25;;;17.70;24.20;;;;;;5057163;28;20197;-59
2021/01/11 06:07:59;;;;;;;2.60;2.28;;;17.80;24.20;;;;;;5074287;28;20161;-59
2021/01/11 06:10:25;;;;;;;2.58;2.38;;;17.80;24.20;;;;;;5074715;28;20169;-59
2021/01/11 06:12:52;;;;;;;3.30;2.65;;;17.80;24.20;;;;;;5074429;28;20209;-59
2021/01/11 06:15:20;;;;;;;3.05;2.55;;;17.80;24.20;;;;;;5072973;28;20565;-59
2021/01/11 06:17:48;;;;;;;4.80;2.63;;;17.80;24.20;;;;;;5074477;28;20154;-59
2021/01/11 06:20:30;;;;;;;2.58;2.38;;;17.80;24.20;;;;;;5073293;28;20280;-59
2021/01/11 06:22:56;;;;;;;2.22;2.05;;;17.70;24.10;;;;;;5072869;28;20178;-59
2021/01/11 06:25:24;;;;;;;2.33;2.13;;;17.80;24.20;;;;;;5074457;28;20518;-60
2021/01/11 06:28:10;;;;;;;1.98;1.88;;;17.80;24.20;;;;;;5074152;28;20375;-59
2021/01/11 06:30:45;;;;;;;3.25;2.97;;;17.80;24.20;;;;;;5074287;28;20158;-60
2021/01/11 06:33:25;;;;;;;2.20;2.10;;;17.80;24.10;;;;;;5072897;28;20185;-59
2021/01/11 06:35:53;;;;;;;2.80;2.50;;;17.80;24.10;;;;;;5074148;28;20162;-60
2021/01/11 06:38:26;;;;;;;2.03;1.92;;;17.90;24.20;;;;;;5073839;28;20165;-59
2021/01/11 06:41:04;;;;;;;2.40;2.20;;;17.90;24.20;;;;;;5074204;28;20154;-59
2021/01/11 06:43:48;;;;;;;2.42;2.20;;;17.90;24.20;;;;;;5074031;28;20143;-59
2021/01/11 06:46:39;;;;;;;2.10;2.00;;;17.90;24.10;;;;;;5073919;28;20284;-59
2021/01/11 06:49:08;;;;;;;2.20;2.10;;;17.90;24.10;;;;;;5070681;28;20257;-59
2021/01/11 06:51:44;;;;;;;2.55;2.35;;;17.90;24.10;;;;;;5072563;28;20557;-59
2021/01/11 06:54:17;;;;;;;2.70;2.50;;;17.90;24.10;;;;;;5073382;28;20151;-59
2021/01/11 06:56:44;;;;;;;2.10;1.90;;;17.90;24.10;;;;;;5073756;28;20209;-58
2021/01/11 06:59:17;;;;;;;2.22;2.03;;;17.90;24.00;;;;;;5073504;28;20204;-59
2021/01/11 07:01:46;;;;;;;2.63;2.42;;;17.90;24.00;;;;;;5073717;28;20694;-60
2021/01/11 07:04:35;;;;;;;2.35;2.15;;;17.90;24.00;;;;;;5073553;28;20296;-60
2021/01/11 07:07:01;;;;;;;2.30;2.10;;;17.90;24.00;;;;;;5073028;28;20169;-60
2021/01/11 07:09:27;;;;;;;2.40;2.20;;;17.90;24.00;;;;;;5055981;28;20175;-59
2021/01/11 07:12:01;;;;;;;2.60;2.07;;;17.90;24.00;;;;;;5071997;28;20198;-59
2021/01/11 07:14:53;;;;;;;2.30;2.10;;;17.90;24.00;;;;;;5072653;28;20815;-59
2021/01/11 07:17:39;;;;;;;2.17;1.98;;;17.90;24.00;;;;;;5052129;28;20175;-59
2021/01/11 07:20:07;;;;;;;3.10;1.92;;;17.90;23.90;;;;;;5053101;28;20634;-59
2021/01/11 07:22:34;;;;;;;12.52;11.05;;;;;;;;;;5050185;28;20183;-68
2021/01/11 07:25:16;;;;;;;14.15;12.80;;;15.90;10.40;;;;;;5056943;28;20165;-63
2021/01/11 07:27:42;;;;;;;7.28;6.60;;;;;;;;;;5070553;28;20450;-58
2021/01/11 07:30:09;;;;;;;7.80;7.00;;;;;;;;;;5071892;28;20585;-56
2021/01/11 07:32:35;;;;;;;8.90;8.00;;;15.00;20.30;;;;;;5054449;28;20599;-57
2021/01/11 07:35:01;;;;;;;9.03;7.80;;;15.20;20.40;;;;;;5070318;28;20174;-57
2021/01/11 07:37:27;;;;;;;9.18;8.27;;;15.40;19.80;;;;;;5067733;28;20605;-56
2021/01/11 07:39:54;;;;;;;9.10;8.30;;;15.60;19.30;;;;;;5060719;28;20192;-56
2021/01/11 07:42:20;;;;;;;9.40;7.93;;;;;;;;;;5059435;28;20950;-55
2021/01/11 07:44:46;;;;;;;8.95;7.90;;;;;;;;;;5058519;28;20173;-58
2021/01/11 07:47:16;;;;;;;8.57;7.78;;;16.10;18.60;;;;;;5060069;28;20183;-57
2021/01/11 07:49:42;;;;;;;9.90;8.38;;;;;;;;;;5067907;28;20170;-59
2021/01/11 07:52:14;;;;;;;8.38;7.68;;;16.40;18.60;;;;;;5056842;28;20190;-58
2021/01/11 07:54:40;;;;;;;7.55;6.80;;;16.60;18.80;;;;;;5058276;28;20201;-59
2021/01/11 07:57:13;;;;;;;8.48;6.95;;;16.70;19.00;;;;;;5059804;28;20257;-59
2021/01/11 07:59:39;;;;;;;8.02;7.20;;;16.80;19.30;;;;;;5060100;28;20190;-58
2021/01/11 08:02:13;;;;;;;7.75;6.38;;;16.90;19.40;;;;;;5069430;28;20224;-59
2021/01/11 08:04:39;;;;;;;8.13;7.32;;;17.00;19.30;;;;;;5060204;28;20159;-59
2021/01/11 08:07:13;;;;;;;9.13;5.65;;;17.10;19.40;;;;;;5064599;28;20174;-59
2021/01/11 08:09:41;;;;;;;6.75;5.65;;;17.20;19.50;;;;;;5060758;28;20183;-56
2021/01/11 08:12:09;;;;;;;6.53;5.57;;;17.20;20.00;;;;;;5065772;28;20189;-58
2021/01/11 08:14:39;;;;;;;14.00;6.05;;;17.30;19.60;;;;;;5063876;28;20210;-56
2021/01/11 08:17:06;;;;;;;5.90;5.35;;;17.30;20.00;;;;;;5063275;28;20179;-57
2021/01/11 08:19:32;;;;;;;7.80;5.07;;;17.40;20.10;;;;;;5052981;28;20175;-58
2021/01/11 08:22:00;;;;;;;5.60;5.10;;;17.40;20.10;;;;;;5054988;28;20216;-58
2021/01/11 08:24:26;;;;;;;5.72;5.10;;;17.60;19.80;;;;;;5063306;28;20209;-57
2021/01/11 08:27:15;;;;;;;5.35;4.80;;;17.60;20.30;;;;;;5065213;28;20956;-56
2021/01/11 08:29:42;;;;;;;5.43;4.93;;;17.60;19.90;;;;;;5059364;28;20193;-58
2021/01/11 08:32:14;;;;;;;7.50;4.70;;;17.70;20.50;;;;;;5063798;28;20202;-58
2021/01/11 08:34:43;;;;;;;5.20;4.80;;;17.70;21.00;;;;;;5072349;28;20177;-58
2021/01/11 08:37:31;;;;;;;5.40;4.90;;;17.70;20.40;;;;;;5062510;28;20167;-57
2021/01/11 08:40:26;;;;;;;5.05;4.65;;;17.70;20.60;;;;;;5068367;28;20211;-57
2021/01/11 08:42:52;;;;;;;4.43;4.13;;;17.80;20.70;;;;;;5065077;28;20195;-57
2021/01/11 08:45:33;;;;;;;5.03;4.13;;;17.80;20.70;;;;;;5063474;28;20193;-58
2021/01/11 08:47:59;;;;;;;4.82;4.28;;;17.90;20.40;;;;;;5062636;28;20443;-59
2021/01/11 08:50:25;;;;;;;5.20;4.57;;;17.90;20.90;;;;;;5061774;28;20518;-58
2021/01/11 08:52:51;;;;;;;5.30;4.40;;;17.90;20.40;;;;;;5070220;28;20622;-58
2021/01/11 08:55:18;;;;;;;8.47;4.63;;;17.90;20.90;;;;;;5060781;28;20481;-57
2021/01/11 08:58:01;;;;;;;4.80;4.30;;;17.90;21.10;;;;;;5054885;28;20163;-56
2021/01/11 09:00:26;;;;;;;4.32;3.92;;;18.00;20.50;;;;;;5057440;28;20223;-55
2021/01/11 09:02:52;;;;;;;5.83;4.63;;;18.00;21.00;;;;;;5068299;28;20277;-57
2021/01/11 09:05:23;;;;;;;4.73;4.30;;;18.00;21.00;;;;;;5062555;28;20455;-57
2021/01/11 09:07:53;;;;;;;4.90;4.25;;;18.10;21.00;;;;;;5066292;28;20419;-57
2021/01/11 09:10:33;;;;;;;5.57;5.00;;;18.10;21.10;;;;;;5061786;28;20189;-57
2021/01/11 09:13:17;;;;;;;4.03;3.42;;;18.10;21.10;;;;;;5061848;28;20201;-56
2021/01/11 09:15:43;;;;;;;6.88;4.18;;;18.10;21.20;;;;;;5064497;28;20178;-57
2021/01/11 09:18:11;;;;;;;4.13;3.70;;;18.20;21.30;;;;;;5058723;28;20167;-57
2021/01/11 09:20:38;;;;;;;6.60;4.65;;;18.20;20.70;;;;;;5056692;28;20421;-57
2021/01/11 09:23:05;;;;;;;4.60;4.20;;;18.20;21.20;;;;;;5066087;28;20189;-55
2021/01/11 09:25:32;;;;;;;4.47;4.05;;;18.20;21.30;;;;;;5064663;28;20246;-56
2021/01/11 09:28:00;;;;;;;4.70;4.30;;;18.30;21.20;;;;;;5056597;28;20281;-57
2021/01/11 09:30:28;;;;;;;5.53;4.32;;;18.30;21.50;;;;;;5066239;28;20186;-57
2021/01/11 09:32:53;;;;;;;4.03;3.63;;;18.30;21.30;;;;;;5052605;28;20222;-56
2021/01/11 09:35:19;;;;;;;4.60;4.13;;;18.40;21.20;;;;;;5066422;28;20199;-56
2021/01/11 09:37:45;;;;;;;4.27;3.87;;;18.40;21.00;;;;;;5049634;28;20178;-56
2021/01/11 09:40:11;;;;;;;3.53;3.30;;;18.40;21.50;;;;;;5070997;28;20436;-57
2021/01/11 09:42:37;;;;;;;4.10;3.70;;;18.50;21.70;;;;;;5068802;28;20189;-59
2021/01/11 09:45:06;;;;;;;3.90;3.50;;;18.60;21.50;;;;;;5060947;28;20171;-58
2021/01/11 09:47:32;;;;;;;4.50;4.05;;;17.40;20.00;;;;;;5070048;28;20430;-56
2021/01/11 09:49:58;;;;;;;8.13;3.20;;;18.60;21.50;;;;;;5068138;28;20182;-56
2021/01/11 09:52:23;;;;;;;3.53;3.05;;;18.70;21.60;;;;;;5063331;28;20431;-56
2021/01/11 09:54:50;;;;;;;3.37;3.17;;;;;;;;;;5065564;28;20535;-54
2021/01/11 09:57:15;;;;;;;2.78;2.58;;;18.80;27.90;;;;;;5053084;28;20224;-54
2021/01/11 09:59:41;;;;;;;3.63;3.33;;;18.80;32.80;;;;;;5070506;28;20582;-54
2021/01/11 10:02:09;;;;;;;5.20;3.83;;;18.80;21.20;;;;;;5044346;28;20593;-55
2021/01/11 10:04:34;;;;;;;3.42;3.10;;;20.60;22.30;;;;;;5055741;28;20178;-57
2021/01/11 10:07:01;;;;;;;3.63;3.33;;;18.90;21.60;;;;;;5053732;28;20529;-56
2021/01/11 10:09:31;;;;;;;4.45;3.10;;;18.90;21.30;;;;;;5058466;28;20218;-56
2021/01/11 10:12:01;;;;;;;5.10;4.00;;;18.90;21.30;;;;;;5048514;28;20230;-56
2021/01/11 10:14:28;;;;;;;5.65;3.03;;;19.00;21.30;;;;;;5050332;28;20233;-55
2021/01/11 10:16:54;;;;;;;3.90;3.45;;;19.00;21.20;;;;;;5052508;28;20213;-56
2021/01/11 10:19:28;;;;;;;3.90;3.60;;;19.00;21.20;;;;;;5062015;28;20257;-56
2021/01/11 10:21:54;;;;;;;4.53;3.78;;;19.10;21.30;;;;;;5050313;28;20500;-56
2021/01/11 10:24:23;;;;;;;3.63;3.33;;;16.50;19.70;;;;;;5055511;28;20178;-56
2021/01/11 10:26:50;;;;;;;4.20;3.72;;;19.10;21.50;;;;;;5061909;28;20182;-55
2021/01/11 10:29:17;;;;;;;4.90;3.45;;;19.10;21.50;;;;;;5056507;28;20260;-55
2021/01/11 10:31:44;;;;;;;3.70;3.40;;;19.20;21.50;;;;;;5052069;28;20346;-55
2021/01/11 10:34:11;;;;;;;3.30;3.00;;;19.20;21.60;;;;;;5060558;28;20178;-56
2021/01/11 10:36:41;;;;;;;3.80;3.20;;;19.20;21.60;;;;;;5041408;28;20256;-56
2021/01/11 10:39:07;;;;;;;4.55;3.15;;;19.20;21.50;;;;;;5054515;28;20190;-55
2021/01/11 10:41:33;;;;;;;6.32;3.55;;;19.30;21.80;;;;;;5051235;28;20216;-55
2021/01/11 10:43:59;;;;;;;4.53;3.27;;;19.30;21.70;;;;;;5059492;28;20539;-56
2021/01/11 10:46:25;;;;;;;3.50;3.05;;;19.30;21.70;;;;;;5056116;28;20194;-54
2021/01/11 10:48:51;;;;;;;4.87;3.20;;;19.30;21.60;;;;;;5056222;28;20636;-54
2021/01/11 10:51:16;;;;;;;3.63;3.33;;;20.80;22.70;;;;;;5051595;28;20213;-54
2021/01/11 10:53:44;;;;;;;6.10;3.07;;;19.40;21.60;;;;;;5042119;28;20178;-55
2021/01/11 10:56:11;;;;;;;4.40;3.20;;;19.40;21.60;;;;;;5053033;28;20301;-55
2021/01/11 10:58:38;;;;;;;4.40;3.97;;;19.40;21.70;;;;;;5055669;28;20699;-56
2021/01/11 11:01:14;;;;;;;3.95;3.58;;;21.30;22.90;;;;;;5061992;28;20204;-54
2021/01/11 11:03:41;;;;;;;4.65;3.40;;;19.50;21.70;;;;;;5031584;28;20593;-54
2021/01/11 11:06:07;;;;;;;5.05;3.30;;;19.50;21.70;;;;;;5044467;28;20189;-55
2021/01/11 11:08:33;;;;;;;3.40;3.20;;;19.60;21.70;;;;;;5052359;28;20181;-55
2021/01/11 11:10:59;;;;;;;4.45;3.00;;;19.60;21.60;;;;;;5051146;28;20178;-55
2021/01/11 11:13:25;;;;;;;4.00;3.40;;;19.60;21.60;;;;;;5013222;28;20543;-56
2021/01/11 11:15:51;;;;;;;5.70;3.00;;;19.60;21.50;;;;;;5046312;28;20436;-55
2021/01/11 11:18:17;;;;;;;5.53;4.60;;;19.60;21.60;;;;;;5053294;28;20178;-54
2021/01/11 11:20:47;;;;;;;4.17;3.47;;;19.60;21.60;;;;;;5051989;28;20178;-55
2021/01/11 11:23:13;;;;;;;4.10;3.58;;;19.60;21.60;;;;;;5048689;28;20360;-57
2021/01/11 11:25:45;;;;;;;5.40;3.40;;;19.60;21.60;;;;;;5047834;28;20183;-55
2021/01/11 11:28:13;;;;;;;4.28;3.50;;;19.60;21.50;;;;;;5063864;28;20218;-54
2021/01/11 11:30:39;;;;;;;4.13;3.72;;;19.70;21.60;;;;;;5070382;28;20249;-55
2021/01/11 11:33:05;;;;;;;3.90;3.03;;;19.70;21.60;;;;;;5069088;28;20304;-54
2021/01/11 11:35:30;;;;;;;3.83;3.43;;;19.70;21.60;;;;;;5068538;28;20480;-54
2021/01/11 11:37:56;;;;;;;4.60;2.70;;;19.70;21.70;;;;;;5031574;28;20170;-54
2021/01/11 11:40:22;;;;;;;6.37;3.33;;;18.90;21.20;;;;;;5068004;28;20408;-55
2021/01/11 11:42:48;;;;;;;3.70;3.30;;;19.70;21.60;;;;;;5072048;28;20400;-54
2021/01/11 11:45:16;;;;;;;2.77;2.53;;;19.70;21.70;;;;;;5069079;28;20178;-54
2021/01/11 11:47:43;;;;;;;3.83;3.45;;;19.80;21.60;;;;;;5042373;28;20182;-54
2021/01/11 11:50:13;;;;;;;3.30;2.92;;;19.70;21.50;;;;;;5067797;28;20222;-53
2021/01/11 11:52:39;;;;;;;5.93;3.55;;;19.80;21.60;;;;;;5068088;28;20204;-54
2021/01/11 11:55:07;;;;;;;3.50;3.20;;;19.80;21.50;;;;;;5067363;28;20257;-54
2021/01/11 11:57:33;;;;;;;3.90;3.03;;;19.80;21.30;;;;;;5058103;28;20708;-55
2021/01/11 11:59:59;;;;;;;4.77;3.20;;;19.80;21.30;;;;;;5070691;28;20174;-54
2021/01/11 12:02:25;;;;;;;3.33;3.03;;;19.80;21.10;;;;;;5074038;28;20416;-54
2021/01/11 12:04:50;;;;;;;4.03;3.47;;;19.80;21.00;;;;;;5071872;28;20294;-56
2021/01/11 12:07:18;;;;;;;4.57;3.33;;;19.80;20.90;;;;;;5074275;28;20504;-54
2021/01/11 12:09:44;;;;;;;5.30;3.55;;;19.80;20.90;;;;;;5065709;28;20186;-53
2021/01/11 12:12:14;;;;;;;3.27;2.60;;;19.80;20.80;;;;;;5068486;28;20212;-54
2021/01/11 12:14:40;;;;;;;3.85;3.50;;;19.80;21.20;;;;;;5059311;28;20214;-54
2021/01/11 12:17:06;;;;;;;4.20;3.20;;;19.90;21.30;;;;;;5073007;28;20230;-53
2021/01/11 12:19:32;;;;;;;4.85;3.58;;;19.80;21.30;;;;;;5070455;28;20861;-54
2021/01/11 12:21:58;;;;;;;3.97;3.57;;;19.90;21.10;;;;;;5068141;28;20225;-54
2021/01/11 12:24:24;;;;;;;4.97;3.20;;;19.90;21.00;;;;;;5082278;28;20886;-53
2021/01/11 12:26:50;;;;;;;4.40;4.00;;;19.90;20.90;;;;;;5067308;28;20183;-53
2021/01/11 12:29:17;;;;;;;4.68;2.88;;;19.90;21.50;;;;;;5073542;28;20174;-52
2021/01/11 12:31:44;;;;;;;5.93;3.10;;;19.90;21.90;;;;;;5073801;28;20229;-52
2021/01/11 12:34:09;;;;;;;3.50;3.20;;;19.90;22.10;;;;;;5072655;28;20182;-54
2021/01/11 12:36:37;;;;;;;4.87;3.10;;;21.00;22.90;;;;;;5073185;28;20686;-53
2021/01/11 12:39:06;;;;;;;6.85;3.28;;;19.90;22.30;;;;;;5070735;28;20451;-55
2021/01/11 12:41:34;;;;;;;3.83;3.40;;;19.90;22.30;;;;;;5072501;28;20233;-54
2021/01/11 12:44:00;;;;;;;5.38;3.50;;;20.00;22.10;;;;;;5059810;28;20205;-53
2021/01/11 12:46:25;;;;;;;3.70;3.07;;;19.90;22.00;;;;;;5063279;28;20526;-53
2021/01/11 12:48:52;;;;;;;5.83;3.80;;;19.90;22.00;;;;;;5058044;28;20274;-55
2021/01/11 12:51:21;;;;;;;3.30;3.00;;;19.90;22.00;;;;;;5059317;28;20312;-53
2021/01/11 12:53:48;;;;;;;4.45;3.15;;;20.00;21.90;;;;;;5064960;28;20167;-54
2021/01/11 12:56:24;;;;;;;5.10;2.97;;;20.00;21.90;;;;;;5062423;28;20245;-54